Chauncey, New York
Current Conditions -  °F | °C
As of 12:56 PM on Monday 24 Nov 2014 (Local Time) from KHPN Reporting Station
Broken Clouds Broken Clouds  
Wind Chill: 64°   Ceiling: 3000
Heat Index: 64°   Visibility: 8mi
Dew Point: 60°   Wind: 8mph
Humidity: 87%   Direction: 170°S
Pressure: 29.6"   Gusts: NA
Location:  41.0065°N, 73.8443°W
Report Text: KHPN 241756Z 17007KT 8SM SCT008 BKN030 18/16 A2960 RMK AO2 SLP024 60001 T01780156 10178 20150 58027
Loading
Personal Weather Stations






























Interactive Weather Map New forecast layout! Learn more

10-Day Weather Forecast

Advertisements
Track Severe Weather on mobile